createdAt,value
2016-09-02T00:00:27.655Z,1018.43
2016-09-02T00:01:27.588Z,1018.42
2016-09-02T00:02:27.554Z,1018.44
2016-09-02T00:03:27.497Z,1018.48
2016-09-02T00:04:27.450Z,1018.47
2016-09-02T00:05:27.407Z,1018.51
2016-09-02T00:06:27.364Z,1018.49
2016-09-02T00:07:27.317Z,1018.52
2016-09-02T00:08:27.474Z,1018.5
2016-09-02T00:09:27.229Z,1018.47
2016-09-02T00:10:27.184Z,1018.5
2016-09-02T00:11:27.139Z,1018.51
2016-09-02T00:12:27.108Z,1018.53
2016-09-02T00:13:27.255Z,1018.49
2016-09-02T00:14:27.007Z,1018.47
2016-09-02T00:15:26.958Z,1018.46
2016-09-02T00:16:26.923Z,1018.44
2016-09-02T00:17:26.868Z,1018.43
2016-09-02T00:18:26.824Z,1018.47
2016-09-02T00:19:26.787Z,1018.44
2016-09-02T00:20:26.737Z,1018.43
2016-09-02T00:21:26.895Z,1018.44
2016-09-02T00:22:26.647Z,1018.47
2016-09-02T00:23:26.598Z,1018.45
2016-09-02T00:24:26.551Z,1018.5
2016-09-02T00:25:26.517Z,1018.52
2016-09-02T00:26:26.673Z,1018.55
2016-09-02T00:27:26.417Z,1018.5
2016-09-02T00:28:26.377Z,1018.52
2016-09-02T00:29:26.327Z,1018.48
2016-09-02T00:30:26.285Z,1018.48
2016-09-02T00:31:26.236Z,1018.52
2016-09-02T00:32:26.190Z,1018.51
2016-09-02T00:33:26.146Z,1018.48
2016-09-02T00:34:26.099Z,1018.53
2016-09-02T00:35:26.254Z,1018.52
2016-09-02T00:36:26.004Z,1018.52
2016-09-02T00:37:25.968Z,1018.46
2016-09-02T00:38:26.116Z,1018.46
2016-09-02T00:39:26.069Z,1018.46
2016-09-02T00:40:26.030Z,1018.47
2016-09-02T00:41:25.816Z,1018.46
2016-09-02T00:42:25.736Z,1018.5
2016-09-02T00:43:25.891Z,1018.46
2016-09-02T00:44:25.647Z,1018.48
2016-09-02T00:45:25.597Z,1018.5
2016-09-02T00:46:25.558Z,1018.54
2016-09-02T00:47:25.509Z,1018.49
2016-09-02T00:48:25.465Z,1018.49
2016-09-02T00:49:25.418Z,1018.52
2016-09-02T00:50:25.370Z,1018.47
2016-09-02T00:51:25.326Z,1018.46
2016-09-02T00:52:25.487Z,1018.43
2016-09-02T00:53:25.231Z,1018.42
2016-09-02T00:54:25.186Z,1018.39
2016-09-02T00:55:25.158Z,1018.39
2016-09-02T00:56:25.098Z,1018.41
2016-09-02T00:57:25.051Z,1018.39
2016-09-02T00:58:25.005Z,1018.37
2016-09-02T00:59:24.964Z,1018.41
2016-09-02T01:00:24.916Z,1018.43
2016-09-02T01:01:24.870Z,1018.45
2016-09-02T01:02:24.827Z,1018.42
2016-09-02T01:03:24.780Z,1018.45
2016-09-02T01:04:24.733Z,1018.43
2016-09-02T01:05:24.687Z,1018.48
2016-09-02T01:06:24.846Z,1018.49
2016-09-02T01:07:24.605Z,1018.48
2016-09-02T01:08:24.555Z,1018.46
2016-09-02T01:09:24.507Z,1018.44
2016-09-02T01:10:24.464Z,1018.46
2016-09-02T01:11:24.414Z,1018.45
2016-09-02T01:12:24.368Z,1018.46
2016-09-02T01:13:24.328Z,1018.5
2016-09-02T01:14:24.498Z,1018.45
2016-09-02T01:15:24.234Z,1018.5
2016-09-02T01:16:24.205Z,1018.5
2016-09-02T01:17:24.147Z,1018.55
2016-09-02T01:18:24.100Z,1018.53
2016-09-02T01:19:24.054Z,1018.5
2016-09-02T01:20:24.005Z,1018.52
2016-09-02T01:21:23.964Z,1018.53
2016-09-02T01:22:23.918Z,1018.55
2016-09-02T01:23:23.874Z,1018.56
2016-09-02T01:24:23.822Z,1018.55
2016-09-02T01:25:23.782Z,1018.52
2016-09-02T01:26:23.726Z,1018.55
2016-09-02T01:27:23.685Z,1018.54
2016-09-02T01:28:23.638Z,1018.53
2016-09-02T01:29:23.593Z,1018.48
2016-09-02T01:30:23.548Z,1018.54
2016-09-02T01:31:23.498Z,1018.53
2016-09-02T01:32:23.458Z,1018.54
2016-09-02T01:33:23.410Z,1018.53
2016-09-02T01:34:23.367Z,1018.5
2016-09-02T01:35:23.318Z,1018.53
2016-09-02T01:36:23.279Z,1018.49
2016-09-02T01:37:23.225Z,1018.51
2016-09-02T01:38:23.379Z,1018.48
2016-09-02T01:39:23.142Z,1018.48
2016-09-02T01:40:23.089Z,1018.52
2016-09-02T01:41:23.049Z,1018.47
2016-09-02T01:42:22.999Z,1018.52
2016-09-02T01:43:22.947Z,1018.54
2016-09-02T01:44:22.906Z,1018.56
2016-09-02T01:45:22.860Z,1018.53
2016-09-02T01:46:22.818Z,1018.52
2016-09-02T01:47:22.768Z,1018.53
2016-09-02T01:48:22.725Z,1018.51
2016-09-02T01:49:22.679Z,1018.51
2016-09-02T01:50:22.628Z,1018.51
2016-09-02T01:51:22.588Z,1018.52
2016-09-02T01:52:22.739Z,1018.54
2016-09-02T01:54:22.444Z,1018.47
2016-09-02T01:55:22.403Z,1018.51
2016-09-02T01:56:22.421Z,1018.5
2016-09-02T01:57:22.336Z,1018.51
2016-09-02T01:58:22.471Z,1018.51
2016-09-02T01:59:22.214Z,1018.52
2016-09-02T02:00:22.183Z,1018.51
2016-09-02T02:01:22.125Z,1018.53
2016-09-02T02:02:22.087Z,1018.55
2016-09-02T02:03:22.039Z,1018.58
2016-09-02T02:04:21.985Z,1018.55
2016-09-02T02:05:21.954Z,1018.57
2016-09-02T02:06:21.897Z,1018.59
2016-09-02T02:07:21.846Z,1018.59
2016-09-02T02:08:21.810Z,1018.59
2016-09-02T02:09:21.759Z,1018.57
2016-09-02T02:10:21.920Z,1018.6
2016-09-02T02:11:21.672Z,1018.57
2016-09-02T02:12:21.619Z,1018.61
2016-09-02T02:13:21.575Z,1018.59
2016-09-02T02:14:21.591Z,1018.59
2016-09-02T02:15:21.485Z,1018.61
2016-09-02T02:16:21.439Z,1018.58
2016-09-02T02:17:21.391Z,1018.57
2016-09-02T02:18:21.342Z,1018.55
2016-09-02T02:19:21.310Z,1018.58
2016-09-02T02:20:21.256Z,1018.56
2016-09-02T02:21:21.206Z,1018.58
2016-09-02T02:22:21.167Z,1018.57
2016-09-02T02:23:21.120Z,1018.57
2016-09-02T02:24:21.070Z,1018.56
2016-09-02T02:25:21.029Z,1018.58
2016-09-02T02:26:20.976Z,1018.57
2016-09-02T02:27:20.941Z,1018.56
2016-09-02T02:28:20.883Z,1018.6
2016-09-02T02:29:20.839Z,1018.62
2016-09-02T02:30:20.800Z,1018.6
2016-09-02T02:31:20.750Z,1018.62
2016-09-02T02:32:20.703Z,1018.62
2016-09-02T02:33:21.259Z,1018.66
2016-09-02T02:34:20.612Z,1018.64
2016-09-02T02:35:20.761Z,1018.6
2016-09-02T02:36:20.513Z,1018.6
2016-09-02T02:37:20.473Z,1018.61
2016-09-02T02:38:20.628Z,1018.62
2016-09-02T02:39:20.580Z,1018.61
2016-09-02T02:40:20.331Z,1018.59
2016-09-02T02:41:20.285Z,1018.58
2016-09-02T02:42:20.239Z,1018.58
2016-09-02T02:43:20.201Z,1018.61
2016-09-02T02:44:20.148Z,1018.61
2016-09-02T02:45:20.100Z,1018.62
2016-09-02T02:46:20.056Z,1018.61
2016-09-02T02:47:20.013Z,1018.59
2016-09-02T02:48:19.961Z,1018.6
2016-09-02T02:49:19.920Z,1018.57
2016-09-02T02:50:19.869Z,1018.55
2016-09-02T02:51:19.820Z,1018.59
2016-09-02T02:52:19.777Z,1018.57
2016-09-02T02:53:19.730Z,1018.53
2016-09-02T02:54:19.680Z,1018.54
2016-09-02T02:55:19.842Z,1018.51
2016-09-02T02:56:19.593Z,1018.47
2016-09-02T02:57:19.548Z,1018.48
2016-09-02T02:58:19.701Z,1018.52
2016-09-02T02:59:19.454Z,1018.54
2016-09-02T03:00:19.407Z,1018.54
2016-09-02T03:01:19.363Z,1018.54
2016-09-02T03:02:19.314Z,1018.53
2016-09-02T03:03:19.270Z,1018.56
2016-09-02T03:04:19.421Z,1018.54
2016-09-02T03:05:19.237Z,1018.54
2016-09-02T03:06:19.131Z,1018.53
2016-09-02T03:07:19.081Z,1018.53
2016-09-02T03:08:19.048Z,1018.53
2016-09-02T03:09:18.992Z,1018.53
2016-09-02T03:10:18.941Z,1018.51
2016-09-02T03:11:18.892Z,1018.5
2016-09-02T03:12:18.861Z,1018.47
2016-09-02T03:13:18.802Z,1018.45
2016-09-02T03:14:18.757Z,1018.43
2016-09-02T03:15:18.729Z,1018.45
2016-09-02T03:16:18.668Z,1018.44
2016-09-02T03:17:18.618Z,1018.44
2016-09-02T03:18:18.571Z,1018.42
2016-09-02T03:19:18.527Z,1018.47
2016-09-02T03:20:19.174Z,1018.4
2016-09-02T03:21:18.642Z,1018.43
2016-09-02T03:22:18.392Z,1018.41
2016-09-02T03:23:18.337Z,1018.41
2016-09-02T03:24:18.294Z,1018.39
2016-09-02T03:25:18.250Z,1018.37
2016-09-02T03:26:18.201Z,1018.37
2016-09-02T03:27:18.153Z,1018.38
2016-09-02T03:28:18.107Z,1018.37
2016-09-02T03:29:18.059Z,1018.33
2016-09-02T03:30:18.021Z,1018.36
2016-09-02T03:31:17.972Z,1018.36
2016-09-02T03:32:17.923Z,1018.31
2016-09-02T03:33:18.283Z,1018.33
2016-09-02T03:34:17.830Z,1018.34
2016-09-02T03:35:18.184Z,1018.34
2016-09-02T03:36:17.743Z,1018.32
2016-09-02T03:37:17.692Z,1018.32
2016-09-02T03:38:17.647Z,1018.27
2016-09-02T03:39:17.599Z,1018.27
2016-09-02T03:40:17.552Z,1018.26
2016-09-02T03:41:17.503Z,1018.25
2016-09-02T03:42:17.456Z,1018.27
2016-09-02T03:43:17.613Z,1018.27
2016-09-02T03:44:17.572Z,1018.27
2016-09-02T03:45:17.351Z,1018.28
2016-09-02T03:46:17.474Z,1018.3
2016-09-02T03:47:17.233Z,1018.29
2016-09-02T03:48:17.182Z,1018.28
2016-09-02T03:49:17.339Z,1018.3
2016-09-02T03:50:17.089Z,1018.28
2016-09-02T03:51:17.038Z,1018.26
2016-09-02T03:52:16.996Z,1018.3
2016-09-02T03:53:16.949Z,1018.32
2016-09-02T03:54:16.902Z,1018.29
2016-09-02T03:55:16.859Z,1018.29
2016-09-02T03:56:16.807Z,1018.29
2016-09-02T03:57:16.758Z,1018.3
2016-09-02T03:58:16.720Z,1018.27
2016-09-02T03:59:16.676Z,1018.23
2016-09-02T04:00:16.618Z,1018.26
2016-09-02T04:01:16.579Z,1018.2
2016-09-02T04:02:16.538Z,1018.24
2016-09-02T04:03:16.483Z,1018.18
2016-09-02T04:04:16.434Z,1018.2
2016-09-02T04:05:16.389Z,1018.22
2016-09-02T04:06:16.348Z,1018.2
2016-09-02T04:07:16.297Z,1018.21
2016-09-02T04:08:16.249Z,1018.2
2016-09-02T04:09:16.199Z,1018.19
2016-09-02T04:10:16.258Z,1018.18
2016-09-02T04:11:16.109Z,1018.16
2016-09-02T04:12:16.266Z,1018.16
2016-09-02T04:13:16.021Z,1018.16
2016-09-02T04:14:15.969Z,1018.14
2016-09-02T04:15:15.930Z,1018.14
2016-09-02T04:16:15.879Z,1018.12
2016-09-02T04:17:15.849Z,1018.13
2016-09-02T04:18:15.782Z,1018.14
2016-09-02T04:19:15.739Z,1018.16
2016-09-02T04:20:15.790Z,1018.14
2016-09-02T04:21:15.641Z,1018.14
2016-09-02T04:22:15.599Z,1018.14
2016-09-02T04:23:15.547Z,1018.18
2016-09-02T04:24:15.503Z,1018.15
2016-09-02T04:25:15.952Z,1018.16
2016-09-02T04:26:15.409Z,1018.16
2016-09-02T04:27:15.368Z,1018.17
2016-09-02T04:28:15.329Z,1018.12
2016-09-02T04:29:15.267Z,1018.16
2016-09-02T04:30:15.222Z,1018.16
2016-09-02T04:31:15.178Z,1018.13
2016-09-02T04:32:15.329Z,1018.12
2016-09-02T04:33:15.082Z,1018.11
2016-09-02T04:34:15.037Z,1018.06
2016-09-02T04:35:14.987Z,1018.06
2016-09-02T04:36:14.938Z,1018.06
2016-09-02T04:37:14.898Z,1018.02
2016-09-02T04:38:14.847Z,1018.02
2016-09-02T04:39:14.802Z,1018.02
2016-09-02T04:40:14.760Z,1018.04
2016-09-02T04:41:14.708Z,1018.01
2016-09-02T04:42:14.662Z,1018.03
2016-09-02T04:43:14.819Z,1018.03
2016-09-02T04:44:14.562Z,1018.06
2016-09-02T04:45:14.718Z,1018.08
2016-09-02T04:46:14.478Z,1018.05
2016-09-02T04:47:14.421Z,1018.02
2016-09-02T04:48:14.379Z,1018.01
2016-09-02T04:49:14.328Z,1018.01
2016-09-02T04:50:14.486Z,1017.98
2016-09-02T04:51:14.640Z,1017.98
2016-09-02T04:52:14.189Z,1017.93
2016-09-02T04:53:14.144Z,1017.92
2016-09-02T04:54:14.091Z,1017.93
2016-09-02T04:55:14.048Z,1017.92
2016-09-02T04:56:13.999Z,1017.86
2016-09-02T04:57:13.958Z,1017.85
2016-09-02T04:58:13.904Z,1017.85
2016-09-02T04:59:13.858Z,1017.81
2016-09-02T05:00:13.810Z,1017.84
2016-09-02T05:01:13.764Z,1017.85
2016-09-02T05:02:13.719Z,1017.83
2016-09-02T05:03:13.669Z,1017.83
2016-09-02T05:04:13.625Z,1017.82
2016-09-02T05:05:13.574Z,1017.82
2016-09-02T05:06:13.526Z,1017.78
2016-09-02T05:07:13.489Z,1017.8
2016-09-02T05:08:13.434Z,1017.82
2016-09-02T05:09:13.390Z,1017.75
2016-09-02T05:10:13.341Z,1017.78
2016-09-02T05:11:13.298Z,1017.77
2016-09-02T05:12:13.449Z,1017.75
2016-09-02T05:13:13.197Z,1017.74
2016-09-02T05:14:13.154Z,1017.69
2016-09-02T05:15:13.106Z,1017.72
2016-09-02T05:16:13.059Z,1017.67
2016-09-02T05:17:13.012Z,1017.68
2016-09-02T05:18:13.168Z,1017.68
2016-09-02T05:19:12.918Z,1017.72
2016-09-02T05:20:12.880Z,1017.67
2016-09-02T05:21:12.823Z,1017.69
2016-09-02T05:22:12.777Z,1017.73
2016-09-02T05:23:12.937Z,1017.74
2016-09-02T05:24:12.681Z,1017.75
2016-09-02T05:25:12.640Z,1017.77
2016-09-02T05:26:12.590Z,1017.78
2016-09-02T05:27:12.548Z,1017.81
2016-09-02T05:28:12.498Z,1017.83
2016-09-02T05:29:12.448Z,1017.84
2016-09-02T05:30:12.602Z,1017.8
2016-09-02T05:31:12.355Z,1017.88
2016-09-02T05:32:12.316Z,1017.84
2016-09-02T05:33:12.270Z,1017.84
2016-09-02T05:34:12.215Z,1017.81
2016-09-02T05:35:12.169Z,1017.83
2016-09-02T05:36:12.120Z,1017.81
2016-09-02T05:37:12.076Z,1017.83
2016-09-02T05:38:12.028Z,1017.88
2016-09-02T05:39:11.977Z,1017.9
2016-09-02T05:40:11.938Z,1017.92
2016-09-02T05:41:11.888Z,1017.94
2016-09-02T05:42:11.837Z,1017.96
2016-09-02T05:43:11.798Z,1017.99
2016-09-02T05:44:11.949Z,1017.99
2016-09-02T05:45:11.710Z,1018.01
2016-09-02T05:46:11.655Z,1018.01
2016-09-02T05:47:11.613Z,1018.05
2016-09-02T05:48:11.629Z,1018.07
2016-09-02T05:49:11.514Z,1018.05
2016-09-02T05:50:11.467Z,1018.07
2016-09-02T05:51:11.425Z,1018.07
2016-09-02T05:52:11.383Z,1018.14
2016-09-02T05:53:11.330Z,1018.2
2016-09-02T05:54:11.277Z,1018.23
2016-09-02T05:55:11.438Z,1018.22
2016-09-02T05:56:11.189Z,1018.22
2016-09-02T05:57:11.139Z,1018.22
2016-09-02T05:58:11.100Z,1018.24
2016-09-02T05:59:11.049Z,1018.25
2016-09-02T06:00:11.198Z,1018.19
2016-09-02T06:01:10.958Z,1018.24
2016-09-02T06:02:10.904Z,1018.24
2016-09-02T06:03:10.859Z,1018.28
2016-09-02T06:04:10.819Z,1018.27
2016-09-02T06:05:10.766Z,1018.32
2016-09-02T06:06:10.720Z,1018.37
2016-09-02T06:07:10.677Z,1018.36
2016-09-02T06:08:10.629Z,1018.4
2016-09-02T06:09:10.579Z,1018.43
2016-09-02T06:10:10.698Z,1018.44
2016-09-02T06:11:10.487Z,1018.45
2016-09-02T06:12:10.441Z,1018.49
2016-09-02T06:13:10.394Z,1018.49
2016-09-02T06:14:10.350Z,1018.46
2016-09-02T06:15:10.309Z,1018.49
2016-09-02T06:16:10.460Z,1018.47
2016-09-02T06:17:10.212Z,1018.45
2016-09-02T06:18:10.161Z,1018.46
2016-09-02T06:19:10.115Z,1018.41
2016-09-02T06:20:10.089Z,1018.39
2016-09-02T06:21:10.026Z,1018.34
2016-09-02T06:22:09.994Z,1018.32
2016-09-02T06:23:09.929Z,1018.31
2016-09-02T06:24:09.881Z,1018.32
2016-09-02T06:25:09.950Z,1018.29
2016-09-02T06:26:09.790Z,1018.3
2016-09-02T06:27:09.748Z,1018.25
2016-09-02T06:28:09.698Z,1018.24
2016-09-02T06:29:09.859Z,1018.22
2016-09-02T06:30:09.601Z,1018.21
2016-09-02T06:31:09.560Z,1018.19
2016-09-02T06:32:09.513Z,1018.14
2016-09-02T06:33:09.461Z,1018.16
2016-09-02T06:34:09.426Z,1018.11
2016-09-02T06:35:09.373Z,1018.05
2016-09-02T06:36:09.330Z,1018.03
2016-09-02T06:37:09.280Z,1018
2016-09-02T06:38:09.235Z,1018.02
2016-09-02T06:39:09.201Z,1018.04
2016-09-02T06:40:09.647Z,1018.09
2016-09-02T06:41:09.102Z,1018.09
2016-09-02T06:42:09.044Z,1018.13
2016-09-02T06:43:09.012Z,1018.12
2016-09-02T06:44:08.954Z,1018.12
2016-09-02T06:45:08.910Z,1018.09
2016-09-02T06:46:08.873Z,1018.05
2016-09-02T06:47:08.819Z,1018.07
2016-09-02T06:48:08.769Z,1018.05
2016-09-02T06:49:08.728Z,1018.05
2016-09-02T06:50:08.680Z,1018.05
2016-09-02T06:51:08.629Z,1018.06
2016-09-02T06:52:08.583Z,1018.08
2016-09-02T06:53:08.743Z,1018.08
2016-09-02T06:54:08.497Z,1018.13
2016-09-02T06:55:08.448Z,1018.19
2016-09-02T06:56:08.400Z,1018.23
2016-09-02T06:57:08.357Z,1018.22
2016-09-02T06:58:08.319Z,1018.22
2016-09-02T06:59:08.268Z,1018.21
2016-09-02T07:00:08.257Z,1018.25
2016-09-02T07:01:08.168Z,1018.26
2016-09-02T07:02:08.188Z,1018.25
2016-09-02T07:03:08.103Z,1018.19
2016-09-02T07:04:08.041Z,1018.22
2016-09-02T07:05:07.996Z,1018.17
2016-09-02T07:06:08.148Z,1018.16
2016-09-02T07:07:07.917Z,1018.17
2016-09-02T07:08:08.072Z,1018.11
2016-09-02T07:09:07.809Z,1018.11
2016-09-02T07:10:07.763Z,1018.13
2016-09-02T07:11:07.741Z,1018.11
2016-09-02T07:12:07.674Z,1018.06
2016-09-02T07:13:07.629Z,1018.03
2016-09-02T07:14:07.577Z,1018.02
2016-09-02T07:15:07.592Z,1018.02
2016-09-02T07:16:07.513Z,1018.02
2016-09-02T07:17:07.675Z,1018
2016-09-02T07:18:07.426Z,1018.02
2016-09-02T07:19:07.344Z,1018.04
2016-09-02T07:20:07.300Z,1018.04
2016-09-02T07:21:07.257Z,1018.06
2016-09-02T07:22:07.212Z,1018.1
2016-09-02T07:23:07.168Z,1018.14
2016-09-02T07:24:07.148Z,1018.19
2016-09-02T07:25:07.103Z,1018.19
2016-09-02T07:26:07.037Z,1018.24
2016-09-02T07:27:06.987Z,1018.21
2016-09-02T07:28:06.947Z,1018.21
2016-09-02T07:29:06.894Z,1018.15
2016-09-02T07:30:07.050Z,1018.15
2016-09-02T07:31:06.801Z,1018.1
2016-09-02T07:32:06.759Z,1018.08
2016-09-02T07:33:06.716Z,1018.07
2016-09-02T07:34:06.667Z,1018.05
2016-09-02T07:35:07.196Z,1018.02
2016-09-02T07:36:06.572Z,1017.96
2016-09-02T07:37:06.538Z,1017.95
2016-09-02T07:38:06.482Z,1017.91
2016-09-02T07:39:06.451Z,1017.9
2016-09-02T07:40:06.603Z,1017.91
2016-09-02T07:41:06.548Z,1017.9
2016-09-02T07:42:06.505Z,1017.91
2016-09-02T07:43:06.257Z,1017.94
2016-09-02T07:44:06.464Z,1017.9
2016-09-02T07:45:06.257Z,1017.96
2016-09-02T07:46:06.130Z,1018
2016-09-02T07:47:06.076Z,1018.04
2016-09-02T07:48:06.038Z,1018.03
2016-09-02T07:49:06.000Z,1018.06
2016-09-02T07:50:05.944Z,1018.08
2016-09-02T07:51:05.900Z,1018.15
2016-09-02T07:52:05.850Z,1018.13
2016-09-02T07:53:06.014Z,1018.15
2016-09-02T07:54:05.767Z,1018.12
2016-09-02T07:55:05.722Z,1018.12
2016-09-02T07:56:05.675Z,1018.11
2016-09-02T07:57:05.628Z,1018.07
2016-09-02T07:58:05.578Z,1018.06
2016-09-02T07:59:05.537Z,1018.1
2016-09-02T08:00:05.689Z,1018.13
2016-09-02T08:01:05.451Z,1018.13
2016-09-02T08:02:05.405Z,1018.12
2016-09-02T08:03:05.556Z,1018.15
2016-09-02T08:04:05.515Z,1018.12
2016-09-02T08:05:05.278Z,1018.13
2016-09-02T08:06:05.240Z,1018.12
2016-09-02T08:07:05.178Z,1018.14
2016-09-02T08:08:05.134Z,1018.14
2016-09-02T08:09:05.099Z,1018.13
2016-09-02T08:10:05.048Z,1018.14
2016-09-02T08:11:05.009Z,1018.17
2016-09-02T08:12:04.956Z,1018.17
2016-09-02T08:13:04.917Z,1018.14
2016-09-02T08:14:04.864Z,1018.11
2016-09-02T08:15:04.820Z,1018.12
2016-09-02T08:16:04.781Z,1018.09
2016-09-02T08:17:04.742Z,1018.1
2016-09-02T08:18:04.686Z,1018.08
2016-09-02T08:19:04.643Z,1018.11
2016-09-02T08:20:05.066Z,1018.12
2016-09-02T08:21:04.753Z,1018.08
2016-09-02T08:22:04.509Z,1018.06
2016-09-02T08:23:04.463Z,1018.02
2016-09-02T08:24:04.422Z,1018
2016-09-02T08:25:04.376Z,1017.98
2016-09-02T08:26:04.334Z,1017.99
2016-09-02T08:27:04.295Z,1017.98
2016-09-02T08:28:04.242Z,1017.98
2016-09-02T08:29:04.206Z,1018.02
2016-09-02T08:30:04.166Z,1018.02
2016-09-02T08:31:04.122Z,1018.04
2016-09-02T08:32:04.072Z,1018.07
2016-09-02T08:33:04.052Z,1018.09
2016-09-02T08:34:03.979Z,1018.11
2016-09-02T08:35:03.940Z,1018.11
2016-09-02T08:36:03.895Z,1018.08
2016-09-02T08:37:04.052Z,1018.09
2016-09-02T08:38:03.810Z,1018.11
2016-09-02T08:39:03.761Z,1018.08
2016-09-02T08:40:03.717Z,1018.08
2016-09-02T08:41:03.672Z,1018.05
2016-09-02T08:42:03.631Z,1018.03
2016-09-02T08:43:03.586Z,1018.06
2016-09-02T08:44:03.614Z,1018.05
2016-09-02T08:45:03.494Z,1017.99
2016-09-02T08:46:03.451Z,1018.04
2016-09-02T08:47:03.417Z,1018.03
2016-09-02T08:48:03.369Z,1018.04
2016-09-02T08:49:03.527Z,1018.06
2016-09-02T08:50:03.285Z,1018.01
2016-09-02T08:51:03.277Z,1018.02
2016-09-02T08:52:03.257Z,1018.05
2016-09-02T08:53:03.145Z,1018.01
2016-09-02T08:54:03.114Z,1017.95
2016-09-02T08:55:03.059Z,1017.94
2016-09-02T08:56:03.030Z,1017.93
2016-09-02T08:57:02.974Z,1017.9
2016-09-02T08:58:03.134Z,1017.95
2016-09-02T08:59:02.891Z,1017.93
2016-09-02T09:00:02.874Z,1018
2016-09-02T09:01:02.801Z,1017.94
2016-09-02T09:02:02.757Z,1017.93
2016-09-02T09:03:02.727Z,1017.93
2016-09-02T09:04:02.866Z,1017.91
2016-09-02T09:05:02.632Z,1017.85
2016-09-02T09:06:02.986Z,1017.85
2016-09-02T09:07:02.739Z,1017.83
2016-09-02T09:08:02.497Z,1017.83
2016-09-02T09:09:02.652Z,1017.78
2016-09-02T09:10:02.408Z,1017.83
2016-09-02T09:11:02.377Z,1017.85
2016-09-02T09:12:02.524Z,1017.85
2016-09-02T09:13:02.283Z,1017.84
2016-09-02T09:14:02.244Z,1017.81
2016-09-02T09:15:02.200Z,1017.85
2016-09-02T09:16:02.153Z,1017.84
2016-09-02T09:17:02.114Z,1017.82
2016-09-02T09:18:02.062Z,1017.82
2016-09-02T09:19:02.024Z,1017.85
2016-09-02T09:20:02.132Z,1017.86
2016-09-02T09:21:01.941Z,1017.84
2016-09-02T09:22:01.896Z,1017.76
2016-09-02T09:23:01.856Z,1017.77
2016-09-02T09:24:01.811Z,1017.77
2016-09-02T09:25:01.795Z,1017.75
2016-09-02T09:26:01.724Z,1017.73
2016-09-02T09:27:01.874Z,1017.68
2016-09-02T09:28:01.646Z,1017.68
2016-09-02T09:29:01.607Z,1017.65
2016-09-02T09:30:01.565Z,1017.69
2016-09-02T09:31:01.516Z,1017.64
2016-09-02T09:32:01.465Z,1017.66
2016-09-02T09:33:01.430Z,1017.68
2016-09-02T09:34:01.512Z,1017.66
2016-09-02T09:35:01.336Z,1017.68
2016-09-02T09:36:01.295Z,1017.7
2016-09-02T09:37:01.249Z,1017.68
2016-09-02T09:38:01.206Z,1017.66
2016-09-02T09:39:01.162Z,1017.66
2016-09-02T09:40:01.124Z,1017.67
2016-09-02T09:41:01.074Z,1017.67
2016-09-02T09:42:01.044Z,1017.75
2016-09-02T09:43:00.988Z,1017.75
2016-09-02T09:44:00.947Z,1017.76
2016-09-02T09:45:00.904Z,1017.76
2016-09-02T09:46:00.861Z,1017.75
2016-09-02T09:47:00.835Z,1017.72
2016-09-02T09:48:00.786Z,1017.78
2016-09-02T09:49:00.735Z,1017.8
2016-09-02T09:50:00.699Z,1017.72
2016-09-02T09:51:00.652Z,1017.69
2016-09-02T09:52:00.613Z,1017.7
2016-09-02T09:53:00.565Z,1017.7
2016-09-02T09:54:00.524Z,1017.73
2016-09-02T09:55:00.475Z,1017.66
2016-09-02T09:56:00.436Z,1017.69
2016-09-02T09:57:00.399Z,1017.72
2016-09-02T09:58:00.352Z,1017.71
2016-09-02T09:59:00.307Z,1017.69
2016-09-02T10:00:00.269Z,1017.68
2016-09-02T10:01:00.217Z,1017.65
2016-09-02T10:02:00.176Z,1017.62
2016-09-02T10:03:00.134Z,1017.62
2016-09-02T10:04:00.312Z,1017.58
2016-09-02T10:05:00.251Z,1017.64
2016-09-02T10:06:00.013Z,1017.61
2016-09-02T10:06:59.969Z,1017.61
2016-09-02T10:07:59.925Z,1017.58
2016-09-02T10:08:59.882Z,1017.6
2016-09-02T10:09:59.868Z,1017.55
2016-09-02T10:10:59.827Z,1017.56
2016-09-02T10:11:59.772Z,1017.55
2016-09-02T10:12:59.707Z,1017.51
2016-09-02T10:13:59.667Z,1017.49
2016-09-02T10:14:59.631Z,1017.48
2016-09-02T10:15:59.587Z,1017.54
2016-09-02T10:16:59.534Z,1017.55
2016-09-02T10:17:59.493Z,1017.5
2016-09-02T10:18:59.643Z,1017.52
2016-09-02T10:19:59.462Z,1017.48
2016-09-02T10:20:59.366Z,1017.44
2016-09-02T10:21:59.321Z,1017.46
2016-09-02T10:22:59.301Z,1017.41
2016-09-02T10:23:59.275Z,1017.39
2016-09-02T10:24:59.391Z,1017.38
2016-09-02T10:25:59.352Z,1017.36
2016-09-02T10:26:59.102Z,1017.4
2016-09-02T10:27:59.058Z,1017.39
2016-09-02T10:28:59.021Z,1017.44
2016-09-02T10:29:58.985Z,1017.43
2016-09-02T10:30:58.949Z,1017.45
2016-09-02T10:31:59.091Z,1017.42
2016-09-02T10:32:59.256Z,1017.4
2016-09-02T10:33:59.011Z,1017.4
2016-09-02T10:34:58.769Z,1017.42
2016-09-02T10:35:58.720Z,1017.39
2016-09-02T10:36:58.704Z,1017.42
2016-09-02T10:37:58.640Z,1017.37
2016-09-02T10:38:58.593Z,1017.36
2016-09-02T10:39:58.558Z,1017.37
2016-09-02T10:40:58.523Z,1017.39
2016-09-02T10:41:58.473Z,1017.4
2016-09-02T10:42:58.659Z,1017.4
2016-09-02T10:43:58.401Z,1017.43
2016-09-02T10:44:58.358Z,1017.41
2016-09-02T10:45:58.299Z,1017.34
2016-09-02T10:46:58.292Z,1017.36
2016-09-02T10:47:58.421Z,1017.32
2016-09-02T10:48:58.189Z,1017.33
2016-09-02T10:49:58.327Z,1017.29
2016-09-02T10:50:58.094Z,1017.32
2016-09-02T10:51:58.043Z,1017.28
2016-09-02T10:52:58.007Z,1017.26
2016-09-02T10:53:57.955Z,1017.2
2016-09-02T10:54:58.112Z,1017.17
2016-09-02T10:55:57.902Z,1017.14
2016-09-02T10:56:57.846Z,1017.12
2016-09-02T10:57:57.994Z,1017.07
2016-09-02T10:58:57.748Z,1017.04
2016-09-02T10:59:57.698Z,1017.07
2016-09-02T11:00:57.660Z,1017.12
2016-09-02T11:01:57.622Z,1017.01
2016-09-02T11:02:57.577Z,1017.09
2016-09-02T11:03:57.542Z,1017.08
2016-09-02T11:04:57.503Z,1017.08
2016-09-02T11:05:57.453Z,1017.11
2016-09-02T11:06:57.406Z,1017.02
2016-09-02T11:07:57.367Z,1016.98
2016-09-02T11:08:57.318Z,1016.97
2016-09-02T11:09:57.274Z,1016.99
2016-09-02T11:10:57.240Z,1016.99
2016-09-02T11:11:57.191Z,1016.99
2016-09-02T11:12:57.157Z,1017.01
2016-09-02T11:13:58.301Z,1017
2016-09-02T11:14:57.276Z,1017.03
2016-09-02T11:15:57.257Z,1017.13
2016-09-02T11:16:56.989Z,1017.02
2016-09-02T11:17:56.941Z,1017.01
2016-09-02T11:18:56.895Z,1017.03
2016-09-02T11:19:56.863Z,1016.98
2016-09-02T11:20:57.006Z,1016.95
2016-09-02T11:21:56.776Z,1016.99
2016-09-02T11:22:56.729Z,1016.98
2016-09-02T11:23:56.684Z,1016.97
2016-09-02T11:24:56.649Z,1016.94
2016-09-02T11:25:56.605Z,1016.91
2016-09-02T11:26:56.557Z,1016.96
2016-09-02T11:27:56.516Z,1016.98
2016-09-02T11:28:56.485Z,1016.95
2016-09-02T11:29:56.629Z,1016.9
2016-09-02T11:30:56.384Z,1016.9
2016-09-02T11:31:56.343Z,1016.88
2016-09-02T11:32:56.298Z,1016.91
2016-09-02T11:33:56.259Z,1016.83
2016-09-02T11:34:56.226Z,1016.84
2016-09-02T11:35:56.179Z,1016.82
2016-09-02T11:36:56.138Z,1016.81
2016-09-02T11:37:56.093Z,1016.86
2016-09-02T11:38:56.048Z,1016.87
2016-09-02T11:39:56.074Z,1016.91
2016-09-02T11:40:55.965Z,1016.9
2016-09-02T11:41:55.926Z,1016.94
2016-09-02T11:42:55.886Z,1016.92
2016-09-02T11:43:56.042Z,1016.91
2016-09-02T11:44:55.793Z,1016.84
2016-09-02T11:45:55.758Z,1016.86
2016-09-02T11:46:55.723Z,1016.87
2016-09-02T11:47:55.676Z,1016.88
2016-09-02T11:48:55.622Z,1016.86
2016-09-02T11:49:55.584Z,1016.84
2016-09-02T11:50:55.538Z,1016.81
2016-09-02T11:51:55.502Z,1016.82
2016-09-02T11:52:55.461Z,1016.88
2016-09-02T11:53:55.415Z,1016.81
2016-09-02T11:54:55.375Z,1016.84
2016-09-02T11:55:55.327Z,1016.79
2016-09-02T11:56:55.284Z,1016.82
2016-09-02T11:57:55.443Z,1016.81
2016-09-02T11:58:55.405Z,1016.76
2016-09-02T11:59:55.156Z,1016.81
2016-09-02T12:00:55.120Z,1016.72
2016-09-02T12:01:55.081Z,1016.76
2016-09-02T12:02:55.238Z,1016.64
2016-09-02T12:03:55.188Z,1016.71
2016-09-02T12:04:55.151Z,1016.68
2016-09-02T12:05:55.102Z,1016.75
2016-09-02T12:06:55.071Z,1016.61
2016-09-02T12:07:54.824Z,1016.67
2016-09-02T12:08:54.976Z,1016.66